Time;durP1;ratioP1;P1;durP2;ratioP2;P2;SDS_P1;SDS_P2;PMS_P1;PMS_P2;Temp;Humidity;BMP_temperature;BMP_pressure;BME280_temperature;BME280_humidity;BME280_pressure;Samples;Min_cycle;Max_cycle;Signal;HPM_P1;HPM_P2
2024/01/01 00:02:23;;;;;;;;;2.33;2.33;;;;;10.42;72.65;99868.41;5098581;28;44809;-83
2024/01/01 00:04:49;;;;;;;;;3.67;3.67;;;;;10.32;72.58;99864.88;5080040;28;47239;-83
2024/01/01 00:07:21;;;;;;;;;7.67;3.00;;;;;10.50;72.91;99864.00;5097666;28;44890;-82
2024/01/01 00:09:46;;;;;;;;;4.67;2.67;;;;;10.34;72.91;99864.84;5096287;28;44804;-82
2024/01/01 00:12:12;;;;;;;;;9.33;7.67;;;;;10.39;72.85;99873.72;5079164;28;44829;-82
2024/01/01 00:14:37;;;;;;;;;4.67;3.00;;;;;10.34;73.03;99876.38;5096597;28;45201;-83
2024/01/01 00:17:02;;;;;;;;;3.67;2.67;;;;;10.36;73.11;99879.94;5097028;28;44822;-81
2024/01/01 00:19:28;;;;;;;;;5.33;3.33;;;;;10.30;72.95;99874.59;5091069;27;44939;-81
2024/01/01 00:21:53;;;;;;;;;3.00;3.00;;;;;10.32;73.10;99878.16;5116195;27;44834;-81
2024/01/01 00:24:18;;;;;;;;;4.00;4.00;;;;;10.30;73.21;99889.66;5097003;27;47060;-81
2024/01/01 00:26:44;;;;;;;;;3.00;3.00;;;;;10.33;73.19;99894.97;5099693;27;44830;-81
2024/01/01 00:29:09;;;;;;;;;3.00;3.00;;;;;10.29;72.99;99894.06;5117160;27;44863;-81
2024/01/01 00:31:36;;;;;;;;;7.00;3.00;;;;;10.25;73.39;99897.59;5098257;27;44836;-81
2024/01/01 00:34:02;;;;;;;;;7.33;3.67;;;;;10.23;73.43;99893.16;5099141;27;47386;-82
2024/01/01 00:36:27;;;;;;;;;3.00;3.00;;;;;10.17;73.93;99900.22;5098573;27;45036;-82
2024/01/01 00:38:53;;;;;;;;;4.33;3.67;;;;;10.11;73.92;99886.94;5098671;27;44776;-81
2024/01/01 00:41:19;;;;;;;;;8.33;4.00;;;;;10.07;73.94;99877.19;5115538;27;44895;-81
2024/01/01 00:43:45;;;;;;;;;4.33;3.67;;;;;10.09;74.06;99890.47;5097049;27;47684;-82
2024/01/01 00:46:10;;;;;;;;;6.33;4.00;;;;;10.08;73.87;99876.31;5114701;27;44864;-81
2024/01/01 00:48:36;;;;;;;;;8.33;4.00;;;;;10.09;74.44;99878.06;5097659;27;44841;-81
2024/01/01 00:51:02;;;;;;;;;2.33;1.33;;;;;10.05;74.32;99876.28;5116921;27;45208;-81
2024/01/01 00:53:28;;;;;;;;;12.33;6.67;;;;;10.18;74.31;99879.88;5095358;27;45107;-82
2024/01/01 00:55:53;;;;;;;;;3.33;3.00;;;;;10.30;73.68;99889.66;5095009;27;44885;-82
2024/01/01 00:58:18;;;;;;;;;7.33;3.67;;;;;10.38;73.34;99893.19;5112747;27;53403;-82
2024/01/01 01:00:44;;;;;;;;;9.67;6.33;;;;;10.39;72.90;99874.59;5114295;27;44927;-81
2024/01/01 01:03:09;;;;;;;;;3.33;3.33;;;;;10.40;73.19;99892.34;5114217;27;45408;-82
2024/01/01 01:05:35;;;;;;;;;4.33;2.33;;;;;10.49;73.09;99891.44;5093645;27;44907;-82
2024/01/01 01:08:02;;;;;;;;;6.33;4.67;;;;;10.46;73.43;99885.25;5113922;27;44890;-82
2024/01/01 01:10:29;;;;;;;;;3.00;3.00;;;;;10.41;72.98;99886.13;5096704;27;44845;-83
2024/01/01 01:12:54;;;;;;;;;6.33;4.67;;;;;10.48;73.14;99884.34;5114704;27;45274;-83
2024/01/01 01:15:21;;;;;;;;;3.00;3.00;;;;;10.51;73.38;99884.38;5113220;27;49818;-83
2024/01/01 01:17:47;;;;;;;;;6.33;4.00;;;;;10.43;73.17;99872.84;5114036;27;44811;-83
2024/01/01 01:20:12;;;;;;;;;5.33;5.33;;;;;10.46;73.21;99880.78;5096683;27;44758;-83
2024/01/01 01:22:38;;;;;;;;;3.33;1.00;;;;;10.42;73.30;99879.03;5096570;27;47084;-83
2024/01/01 01:25:06;;;;;;;;;9.67;3.00;;;;;10.43;73.06;99878.16;5115193;27;45104;-83
2024/01/01 01:27:32;;;;;;;;;1.67;1.00;;;;;10.43;73.30;99874.63;5114677;27;44966;-83
2024/01/01 01:29:57;;;;;;;;;5.33;4.33;;;;;10.40;73.66;99884.38;5099021;27;45345;-82
2024/01/01 01:32:22;;;;;;;;;6.67;4.00;;;;;10.44;73.20;99900.31;5115713;27;45168;-82
2024/01/01 01:34:48;;;;;;;;;5.33;3.33;;;;;10.43;73.32;99902.09;5114355;27;44759;-83
2024/01/01 01:37:20;;;;;;;;;6.00;5.00;;;;;10.59;73.02;99906.53;5097748;27;44781;-82
2024/01/01 01:39:46;;;;;;;;;4.67;4.00;;;;;10.43;73.13;99917.16;5115086;27;44906;-83
2024/01/01 01:42:11;;;;;;;;;20.67;15.33;;;;;10.48;72.49;99916.25;5094125;27;46807;-83
2024/01/01 01:44:37;;;;;;;;;40.00;38.67;;;;;10.53;72.61;99924.25;5095504;27;44879;-82
2024/01/01 01:47:03;;;;;;;;;54.33;44.00;;;;;10.47;72.45;99922.47;5113116;27;45279;-82
2024/01/01 01:49:28;;;;;;;;;81.25;62.75;;;;;10.45;72.61;99921.56;5113606;27;44896;-82
2024/01/01 01:51:54;;;;;;;;;82.25;65.25;;;;;10.49;72.37;99933.09;5096820;27;47001;-82
2024/01/01 01:54:23;;;;;;;;;69.75;54.25;;;;;10.61;72.49;99928.69;5117462;27;44911;-83
2024/01/01 01:56:49;;;;;;;;;69.75;54.75;;;;;10.50;72.53;99935.78;5119115;27;44826;-83
2024/01/01 01:59:15;;;;;;;;;30.67;28.00;;;;;10.48;72.42;99931.31;5116913;27;44813;-83
2024/01/01 02:02:36;;;;;;;;;16.33;16.33;;;;;10.67;72.28;99937.56;5115560;27;45052;-83
2024/01/01 02:05:04;;;;;;;;;3.00;3.00;;;;;10.47;72.32;99940.19;5116376;27;44824;-83
2024/01/01 02:07:31;;;;;;;;;8.00;6.00;;;;;10.45;72.32;99932.22;5116099;27;44886;-83
2024/01/01 02:09:57;;;;;;;;;3.33;2.67;;;;;10.49;72.34;99935.75;5098555;27;45417;-83
2024/01/01 02:12:23;;;;;;;;;6.00;3.00;;;;;10.46;72.42;99933.97;5116576;27;45066;-82
2024/01/01 02:14:48;;;;;;;;;2.00;2.00;;;;;10.46;72.09;99947.25;5115059;27;44760;-82
2024/01/01 02:17:16;;;;;;;;;2.33;1.33;;;;;10.48;72.24;99955.25;5098389;27;45342;-83
2024/01/01 02:19:41;;;;;;;;;6.67;3.67;;;;;10.44;71.85;99942.84;5080829;27;45249;-83
2024/01/01 02:22:06;;;;;;;;;4.00;2.67;;;;;10.45;72.10;99955.25;5078200;28;47380;-83
2024/01/01 02:24:33;;;;;;;;;3.00;3.00;;;;;10.43;72.15;99952.59;5077947;28;45188;-82
2024/01/01 02:26:58;;;;;;;;;4.33;3.00;;;;;10.44;72.25;99957.00;5095066;28;45256;-83
2024/01/01 02:29:25;;;;;;;;;8.00;4.00;;;;;10.40;72.45;99953.47;5095673;28;45452;-83
2024/01/01 02:31:50;;;;;;;;;3.67;3.67;;;;;10.41;72.03;99957.00;5076385;28;47163;-82
2024/01/01 02:34:18;;;;;;;;;2.00;1.00;;;;;10.57;72.29;99950.84;5077915;28;44993;-82
2024/01/01 02:36:44;;;;;;;;;6.33;1.67;;;;;10.41;72.16;99941.06;5077894;28;44940;-82
2024/01/01 02:39:12;;;;;;;;;2.33;2.33;;;;;10.41;72.18;99944.59;5077117;28;44892;-82
2024/01/01 02:41:39;;;;;;;;;1.67;1.67;;;;;10.38;72.14;99949.00;5095973;28;45086;-81
2024/01/01 02:44:05;;;;;;;;;4.00;3.00;;;;;10.40;72.12;99947.25;5078565;28;45235;-82
2024/01/01 02:46:31;;;;;;;;;4.67;1.67;;;;;10.43;71.99;99938.41;5094703;28;44942;-81
2024/01/01 02:48:56;;;;;;;;;3.00;2.00;;;;;10.47;72.09;99941.06;5078005;28;44919;-82
2024/01/01 02:51:22;;;;;;;;;2.33;2.33;;;;;10.44;71.96;99949.03;5093934;28;45366;-81
2024/01/01 02:53:47;;;;;;;;;7.67;1.67;;;;;10.51;72.21;99969.44;5076280;28;44934;-82
2024/01/01 02:56:21;;;;;;;;;4.00;2.67;;;;;10.64;71.87;99953.50;5078574;28;44878;-82
2024/01/01 02:58:48;;;;;;;;;2.67;2.33;;;;;10.68;71.76;99966.78;5077817;28;45463;-82
2024/01/01 03:01:14;;;;;;;;;4.33;3.33;;;;;10.64;71.53;99964.13;5095599;28;45621;-82
2024/01/01 03:03:39;;;;;;;;;4.33;3.00;;;;;10.59;71.66;99956.16;5096565;28;44711;-82
2024/01/01 03:06:08;;;;;;;;;2.67;2.67;;;;;10.61;71.91;99965.91;5077365;28;44881;-81
2024/01/01 03:08:37;;;;;;;;;3.00;3.00;;;;;10.54;71.41;99966.81;5096954;28;44869;-82
2024/01/01 03:11:04;;;;;;;;;4.00;3.00;;;;;10.55;71.40;99965.03;5078281;28;46870;-80
2024/01/01 03:13:29;;;;;;;;;3.33;1.00;;;;;10.55;71.23;99968.56;5096575;28;45244;-82
2024/01/01 03:15:54;;;;;;;;;4.33;1.67;;;;;10.55;71.52;99968.56;5096100;28;45001;-82
2024/01/01 03:18:21;;;;;;;;;3.67;3.00;;;;;10.61;71.09;99975.66;5077926;28;45038;-82
2024/01/01 03:20:47;;;;;;;;;3.00;3.00;;;;;10.60;71.05;99982.75;5096365;28;45561;-82
2024/01/01 03:23:12;;;;;;;;;3.00;2.00;;;;;10.57;71.18;99969.44;5096015;28;44837;-83
2024/01/01 03:25:38;;;;;;;;;2.67;1.67;;;;;10.64;71.27;99974.78;5077617;28;44968;-82
2024/01/01 03:28:37;;;;;;;;;4.33;2.67;;;;;10.83;71.19;99971.25;5075712;28;44911;-82
2024/01/01 03:31:04;;;;;;;;;2.33;1.00;;;;;10.58;71.13;99971.22;5076924;28;47739;-81
2024/01/01 03:33:33;;;;;;;;;6.67;3.00;;;;;10.63;71.16;99975.66;5095488;28;44870;-82
2024/01/01 03:35:59;;;;;;;;;2.67;2.67;;;;;10.41;71.22;99987.13;5075335;28;44903;-82
2024/01/01 03:38:24;;;;;;;;;2.00;2.00;;;;;10.42;71.45;99980.03;5095028;28;44926;-82
2024/01/01 03:40:51;;;;;;;;;3.33;2.00;;;;;10.53;71.59;99972.97;5075621;28;47126;-82
2024/01/01 03:43:16;;;;;;;;;6.00;3.33;;;;;10.41;71.22;99991.56;5075514;28;45042;-82
2024/01/01 03:45:42;;;;;;;;;2.00;2.00;;;;;10.35;71.29;99995.09;5072599;28;44966;-82
2024/01/01 03:48:08;;;;;;;;;3.00;2.00;;;;;10.32;71.43;99991.53;5073615;28;44880;-82
2024/01/01 03:50:33;;;;;;;;;2.33;2.33;;;;;10.24;71.61;99995.91;5090582;28;47364;-82
2024/01/01 03:52:59;;;;;;;;;0.33;0.33;;;;;10.22;71.28;99998.56;5075172;28;45304;-82
2024/01/01 03:55:24;;;;;;;;;3.00;1.00;;;;;10.17;71.24;99995.88;5074807;28;44934;-82
2024/01/01 03:57:49;;;;;;;;;2.00;1.00;;;;;10.13;71.67;99995.88;5073724;28;44808;-82
2024/01/01 04:00:15;;;;;;;;;5.33;2.33;;;;;10.19;71.58;100002.09;5088861;28;46973;-82
2024/01/01 04:02:41;;;;;;;;;2.33;1.67;;;;;10.14;71.70;99995.88;5075448;28;44815;-82
2024/01/01 04:05:09;;;;;;;;;2.00;2.00;;;;;10.28;71.76;100003.91;5074772;28;44803;-81
2024/01/01 04:07:34;;;;;;;;;1.67;1.67;;;;;10.11;71.45;100009.16;5057366;28;44856;-82
2024/01/01 04:10:02;;;;;;;;;2.33;1.00;;;;;10.15;71.38;100018.03;5070351;28;47772;-82
2024/01/01 04:12:27;;;;;;;;;0.67;0.67;;;;;10.09;71.42;100012.69;5074391;28;45456;-83
2024/01/01 04:14:52;;;;;;;;;2.33;2.33;;;;;10.04;71.51;100010.00;5072811;28;44785;-82
2024/01/01 04:17:24;;;;;;;;;6.00;2.00;;;;;10.02;71.30;100011.78;5074153;28;44771;-82
2024/01/01 04:19:50;;;;;;;;;2.67;2.00;;;;;9.99;71.24;100007.31;5092368;28;45526;-82
2024/01/01 04:22:16;;;;;;;;;3.00;1.00;;;;;10.04;71.13;100017.97;5110014;27;45467;-83
2024/01/01 04:24:43;;;;;;;;;1.00;1.00;;;;;9.99;71.23;100023.25;5096220;27;44881;-82
2024/01/01 04:27:09;;;;;;;;;1.00;1.00;;;;;9.98;71.03;100023.28;5110700;27;45154;-82
2024/01/01 04:29:36;;;;;;;;;3.00;1.33;;;;;10.05;71.44;100025.06;5090430;28;47259;-83
2024/01/01 04:32:01;;;;;;;;;0.00;0.00;;;;;9.87;71.48;100033.81;5111608;27;44774;-83
2024/01/01 04:34:27;;;;;;;;;3.00;1.00;;;;;9.98;71.33;100033.91;5094365;27;44722;-82
2024/01/01 04:36:52;;;;;;;;;1.00;1.00;;;;;9.96;71.22;100028.56;5093784;28;44700;-82
2024/01/01 04:39:19;;;;;;;;;2.00;1.00;;;;;9.96;71.19;100030.34;5093525;28;56332;-83
2024/01/01 04:41:45;;;;;;;;;2.00;1.00;;;;;9.96;71.00;100033.00;5094164;28;45440;-82
2024/01/01 04:44:10;;;;;;;;;1.00;1.00;;;;;9.91;70.74;100030.28;5093267;28;45291;-82
2024/01/01 04:46:35;;;;;;;;;1.00;1.00;;;;;9.96;71.10;100039.19;5103829;27;44854;-82
2024/01/01 04:49:01;;;;;;;;;2.33;1.00;;;;;9.91;71.00;100029.41;5095102;27;47004;-83
2024/01/01 04:51:26;;;;;;;;;1.00;1.00;;;;;9.94;70.87;100040.06;5095471;27;44939;-83
2024/01/01 04:53:52;;;;;;;;;2.33;1.00;;;;;9.94;70.99;100035.63;5096647;27;45391;-82
2024/01/01 04:56:17;;;;;;;;;0.67;0.67;;;;;9.93;70.63;100039.16;5112982;27;45418;-83
2024/01/01 04:58:45;;;;;;;;;1.67;1.67;;;;;10.10;70.75;100049.91;5113238;27;45339;-83
2024/01/01 05:01:14;;;;;;;;;1.00;1.00;;;;;10.10;70.76;100041.91;5095301;27;44723;-82
2024/01/01 05:03:39;;;;;;;;;2.00;2.00;;;;;9.95;70.59;100056.00;5115693;27;44974;-82
2024/01/01 05:06:05;;;;;;;;;0.00;0.00;;;;;9.93;70.46;100059.53;5097625;27;44836;-82
2024/01/01 05:08:31;;;;;;;;;2.33;2.33;;;;;9.93;70.76;100049.78;5115126;27;45238;-81
2024/01/01 05:10:57;;;;;;;;;2.33;2.00;;;;;9.89;70.67;100057.72;5115009;27;44807;-81
2024/01/01 05:13:22;;;;;;;;;1.00;1.00;;;;;9.90;70.49;100070.16;5115720;27;45322;-82
2024/01/01 05:15:48;;;;;;;;;7.67;7.00;;;;;9.87;70.79;100068.34;5097120;27;45126;-81
2024/01/01 05:18:15;;;;;;;;;2.00;2.00;;;;;9.84;70.60;100076.31;5095644;27;46982;-82
2024/01/01 05:20:42;;;;;;;;;2.00;1.00;;;;;9.86;71.01;100077.22;5112052;27;44824;-82
2024/01/01 05:23:07;;;;;;;;;2.00;0.33;;;;;9.85;70.86;100083.38;5095894;27;45000;-82
2024/01/01 05:25:33;;;;;;;;;1.33;1.33;;;;;9.79;70.63;100075.38;5115788;27;45060;-82
2024/01/01 05:27:58;;;;;;;;;1.00;1.00;;;;;9.81;70.71;100085.13;5117186;27;45287;-82
2024/01/01 05:30:27;;;;;;;;;5.00;2.00;;;;;9.81;70.90;100093.09;5100021;27;44848;-82
2024/01/01 05:32:52;;;;;;;;;2.33;1.00;;;;;9.80;70.74;100090.44;5099439;27;45004;-82
2024/01/01 05:35:18;;;;;;;;;3.00;1.00;;;;;9.81;70.82;100093.09;5119626;27;44983;-82
2024/01/01 05:37:43;;;;;;;;;1.00;1.00;;;;;9.80;70.62;100091.31;5118240;27;49647;-82
2024/01/01 05:40:09;;;;;;;;;2.67;2.67;;;;;9.81;70.70;100087.78;5114548;27;45301;-82
2024/01/01 05:42:34;;;;;;;;;4.00;3.00;;;;;9.81;70.97;100098.41;5116965;27;44956;-82
2024/01/01 05:44:59;;;;;;;;;0.33;0.00;;;;;9.81;70.60;100095.75;5082404;27;44947;-82
2024/01/01 05:47:25;;;;;;;;;0.00;0.00;;;;;9.81;70.58;100101.06;5108775;27;44989;-82
2024/01/01 05:49:51;;;;;;;;;2.00;0.33;;;;;9.72;71.11;100087.72;5070556;27;44963;-81
2024/01/01 05:52:17;;;;;;;;;1.00;1.00;;;;;9.76;71.07;100093.97;5103862;27;50567;-81
2024/01/01 05:55:36;;;;;;;;;1.00;1.00;;;;;9.99;71.12;100104.72;5087628;27;45421;-81
2024/01/01 05:58:02;;;;;;;;;1.00;1.00;;;;;9.76;70.91;100092.19;5099863;27;46059;-81
2024/01/01 06:00:29;;;;;;;;;5.00;2.33;;;;;9.75;70.87;100111.63;5101978;27;45823;-80
2024/01/01 06:02:54;;;;;;;;;0.00;0.00;;;;;9.77;71.00;100117.84;5084693;27;45691;-80
2024/01/01 06:05:19;;;;;;;;;0.33;0.00;;;;;9.78;71.07;100108.13;5100708;27;45396;-80
2024/01/01 06:08:35;;;;;;;;;5.00;1.00;;;;;9.95;70.91;100108.25;5101006;27;46973;-81
2024/01/01 06:11:00;;;;;;;;;2.33;2.00;;;;;9.70;71.05;100105.41;5103472;27;45336;-81
2024/01/01 06:13:25;;;;;;;;;7.00;3.00;;;;;9.69;71.25;100102.75;5084410;27;45371;-81
2024/01/01 06:15:51;;;;;;;;;3.67;1.33;;;;;9.70;70.97;100116.03;5083929;27;45350;-81
2024/01/01 06:18:17;;;;;;;;;1.67;1.33;;;;;9.64;71.06;100105.38;5094770;27;45457;-81
2024/01/01 06:20:43;;;;;;;;;3.00;1.33;;;;;9.70;71.07;100115.16;5062668;28;45780;-81
2024/01/01 06:23:08;;;;;;;;;2.00;2.00;;;;;9.73;71.22;100116.03;5078770;28;45396;-81
2024/01/01 06:25:33;;;;;;;;;2.00;1.00;;;;;9.73;71.41;100121.34;5079586;28;45429;-81
2024/01/01 06:27:59;;;;;;;;;2.00;1.00;;;;;9.67;71.11;100112.47;5060982;28;47426;-81
2024/01/01 06:30:25;;;;;;;;;2.33;2.33;;;;;9.74;71.09;100130.25;5080690;28;45479;-81
2024/01/01 06:32:51;;;;;;;;;0.67;0.67;;;;;9.71;71.47;100125.78;5063237;28;45427;-82
2024/01/01 06:35:16;;;;;;;;;2.00;2.00;;;;;9.72;71.38;100135.53;5062566;28;45646;-80
2024/01/01 06:37:42;;;;;;;;;2.00;2.00;;;;;9.72;71.20;100138.19;5080519;28;45500;-80
2024/01/01 06:40:09;;;;;;;;;1.67;1.00;;;;;9.71;71.34;100152.31;5062835;28;45441;-81
2024/01/01 06:42:34;;;;;;;;;1.00;1.00;;;;;9.67;71.49;100144.31;5062865;28;45448;-80
2024/01/01 06:48:28;;;;;;;;;1.33;1.33;;;;;9.88;71.63;100163.09;5072452;28;45917;-80
2024/01/01 06:50:53;;;;;;;;;0.67;0.67;;;;;9.71;71.40;100159.41;5081743;28;45484;-81
2024/01/01 06:53:19;;;;;;;;;1.00;1.00;;;;;9.71;71.53;100162.06;5081658;28;45797;-80
2024/01/01 06:55:44;;;;;;;;;2.67;1.00;;;;;9.73;71.50;100163.84;5062772;28;45324;-81
2024/01/01 06:58:11;;;;;;;;;1.00;1.00;;;;;9.73;71.52;100171.81;5082703;28;46150;-80
2024/01/01 07:00:36;;;;;;;;;3.67;2.00;;;;;9.68;71.63;100173.56;5080121;28;45529;-81
2024/01/01 07:03:02;;;;;;;;;0.00;0.00;;;;;9.74;71.50;100173.59;5079401;28;45402;-81
2024/01/01 07:05:29;;;;;;;;;1.00;1.00;;;;;9.69;71.83;100183.28;5079708;28;45451;-81
2024/01/01 07:07:55;;;;;;;;;1.67;1.00;;;;;9.67;71.59;100182.38;5081242;28;45536;-81
2024/01/01 07:10:20;;;;;;;;;2.00;2.00;;;;;9.69;71.75;100191.25;5080846;28;45906;-81
2024/01/01 07:12:45;;;;;;;;;3.00;1.33;;;;;9.68;71.87;100202.75;5061482;28;45328;-81
2024/01/01 07:15:11;;;;;;;;;1.67;1.00;;;;;9.69;71.47;100204.53;5045035;28;45492;-81
2024/01/01 07:17:37;;;;;;;;;0.00;0.00;;;;;9.67;71.79;100211.59;5062529;27;47446;-81
2024/01/01 07:20:04;;;;;;;;;1.00;0.00;;;;;9.67;71.85;100211.59;5098522;27;45326;-81
2024/01/01 07:22:29;;;;;;;;;2.00;2.00;;;;;9.69;71.99;100214.25;5081514;27;45572;-81
2024/01/01 07:24:55;;;;;;;;;2.00;1.00;;;;;9.64;71.87;100216.00;5099883;27;45526;-81
2024/01/01 07:27:21;;;;;;;;;3.67;1.00;;;;;9.63;71.94;100220.41;5100316;27;45494;-81
2024/01/01 07:29:47;;;;;;;;;3.33;2.00;;;;;9.64;71.98;100227.50;5100599;27;45427;-80
2024/01/01 07:32:13;;;;;;;;;0.67;0.00;;;;;9.65;71.95;100218.66;5082358;27;45552;-81
2024/01/01 07:34:39;;;;;;;;;2.00;1.00;;;;;9.63;71.90;100217.75;5082954;27;45432;-80
2024/01/01 07:37:04;;;;;;;;;2.67;2.67;;;;;9.59;72.18;100219.50;5099992;27;46195;-80
2024/01/01 07:39:36;;;;;;;;;1.00;1.00;;;;;9.78;72.14;100223.22;5080022;27;45349;-81
2024/01/01 07:42:01;;;;;;;;;3.00;1.00;;;;;9.60;72.13;100217.72;5098927;27;45459;-80
2024/01/01 07:44:26;;;;;;;;;0.67;0.67;;;;;9.66;72.14;100233.72;5080908;27;45504;-81
2024/01/01 07:46:52;;;;;;;;;1.00;1.00;;;;;9.68;72.06;100242.59;5080529;27;45542;-82
2024/01/01 07:49:18;;;;;;;;;2.00;2.00;;;;;9.66;72.10;100235.50;5100814;27;45400;-82
2024/01/01 07:51:43;;;;;;;;;1.67;1.67;;;;;9.70;71.77;100237.31;5082234;27;45573;-82
2024/01/01 07:54:09;;;;;;;;;3.00;3.00;;;;;9.65;71.91;100242.53;5082405;27;45845;-81
2024/01/01 07:56:37;;;;;;;;;2.67;2.67;;;;;9.72;72.30;100248.81;5099434;27;46098;-82
2024/01/01 07:59:03;;;;;;;;;3.00;1.00;;;;;9.74;72.26;100250.63;5099734;27;45432;-81
2024/01/01 08:01:29;;;;;;;;;1.00;1.00;;;;;9.75;72.05;100249.72;5099404;27;56167;-82
2024/01/01 08:03:54;;;;;;;;;0.33;0.33;;;;;9.79;71.61;100248.00;5082085;27;45421;-81
2024/01/01 08:06:21;;;;;;;;;4.33;1.00;;;;;9.82;71.73;100261.31;5080899;27;46747;-81
2024/01/01 08:08:46;;;;;;;;;3.00;0.33;;;;;9.84;71.91;100259.56;5081522;27;45653;-82
2024/01/01 08:11:11;;;;;;;;;2.00;2.00;;;;;9.90;71.67;100267.59;5081957;27;45434;-82
2024/01/01 08:13:38;;;;;;;;;2.00;2.00;;;;;10.01;71.94;100265.00;5080851;27;45592;-82
2024/01/01 08:16:03;;;;;;;;;1.67;0.67;;;;;9.95;71.63;100254.34;5081251;27;55518;-82
2024/01/01 08:18:29;;;;;;;;;0.33;0.33;;;;;9.98;72.04;100259.69;5082119;27;45472;-82
2024/01/01 08:20:54;;;;;;;;;4.67;1.67;;;;;10.01;71.46;100267.66;5082123;27;45393;-81
2024/01/01 08:23:20;;;;;;;;;2.67;0.00;;;;;10.10;71.46;100270.41;5100491;27;45434;-82
2024/01/01 08:25:46;;;;;;;;;1.00;1.00;;;;;10.12;71.51;100287.25;5100415;27;45314;-82
2024/01/01 08:28:11;;;;;;;;;3.00;1.00;;;;;10.16;71.31;100283.75;5081582;27;45369;-82
2024/01/01 08:30:38;;;;;;;;;1.67;1.33;;;;;10.19;71.17;100286.41;5081039;27;45288;-81
2024/01/01 08:33:04;;;;;;;;;3.67;1.67;;;;;10.20;71.47;100292.66;5081717;27;45652;-81
2024/01/01 08:35:31;;;;;;;;;4.33;2.00;;;;;10.25;71.21;100298.00;5098641;27;46539;-82
2024/01/01 08:37:57;;;;;;;;;1.00;1.00;;;;;10.27;71.34;100297.13;5081764;27;45487;-81
2024/01/01 08:40:23;;;;;;;;;1.00;1.00;;;;;10.28;71.12;100300.66;5100254;27;45829;-81
2024/01/01 08:42:48;;;;;;;;;2.33;1.67;;;;;10.32;71.11;100308.72;5099194;27;45552;-80
2024/01/01 08:45:16;;;;;;;;;3.00;2.33;;;;;10.34;71.45;100306.06;5080915;27;47357;-81
2024/01/01 08:47:41;;;;;;;;;1.00;1.00;;;;;10.33;71.09;100312.25;5095895;27;45482;-80
2024/01/01 08:50:07;;;;;;;;;2.33;1.00;;;;;10.34;71.58;100317.59;5098133;27;45414;-81
2024/01/01 08:52:34;;;;;;;;;1.33;1.33;;;;;10.34;71.46;100322.91;5100863;27;45463;-81
2024/01/01 08:54:59;;;;;;;;;4.33;2.00;;;;;10.35;71.60;100323.81;5082382;27;47663;-81
2024/01/01 08:57:26;;;;;;;;;7.67;2.33;;;;;10.44;71.50;100321.19;5099373;27;52567;-81
2024/01/01 08:59:52;;;;;;;;;1.00;1.00;;;;;10.47;71.65;100310.59;5081697;27;45344;-81
2024/01/01 09:02:17;;;;;;;;;2.33;1.00;;;;;10.53;71.27;100313.31;5084889;27;45918;-81
2024/01/01 09:04:42;;;;;;;;;0.00;0.00;;;;;10.62;71.18;100323.09;5101241;27;45444;-81
2024/01/01 09:07:08;;;;;;;;;3.00;2.00;;;;;10.66;71.03;100335.53;5083581;27;45411;-81
2024/01/01 09:09:34;;;;;;;;;2.33;1.33;;;;;10.73;71.23;100325.88;5102304;27;45833;-81
2024/01/01 09:11:59;;;;;;;;;3.00;1.67;;;;;10.64;71.03;100326.66;5083706;27;45418;-81
2024/01/01 09:14:25;;;;;;;;;4.33;1.33;;;;;10.68;71.22;100338.22;5102174;27;46181;-81
2024/01/01 09:16:51;;;;;;;;;9.33;3.00;;;;;10.69;71.10;100329.38;5084599;27;45385;-81
2024/01/01 09:19:16;;;;;;;;;2.00;1.00;;;;;10.68;70.95;100324.94;5103809;27;45352;-82
2024/01/01 09:21:42;;;;;;;;;2.00;2.00;;;;;10.59;71.84;100350.56;5083670;27;45459;-82
2024/01/01 09:24:09;;;;;;;;;2.00;2.00;;;;;10.67;71.76;100347.09;5102728;27;46664;-81
2024/01/01 09:26:35;;;;;;;;;2.00;2.00;;;;;10.68;71.47;100351.53;5102516;27;46196;-81
2024/01/01 09:29:00;;;;;;;;;1.00;1.00;;;;;10.70;71.43;100347.09;5100530;27;45389;-81
2024/01/01 09:31:26;;;;;;;;;1.00;1.00;;;;;10.90;71.14;100344.59;5102403;27;45443;-81
2024/01/01 09:33:51;;;;;;;;;1.67;1.67;;;;;11.01;70.93;100346.44;5101626;27;45505;-81
2024/01/01 09:36:17;;;;;;;;;4.33;2.67;;;;;11.05;70.60;100339.38;5102016;27;45564;-81
2024/01/01 09:38:43;;;;;;;;;4.33;4.33;;;;;11.16;70.48;100355.38;5085652;27;45565;-81
2024/01/01 09:41:13;;;;;;;;;7.33;3.00;;;;;11.37;69.98;100350.19;5085416;27;45536;-81
2024/01/01 09:43:39;;;;;;;;;3.00;1.00;;;;;11.22;69.91;100352.75;5084832;27;46867;-81
2024/01/01 09:46:05;;;;;;;;;2.00;1.00;;;;;11.22;70.09;100352.75;5102042;27;45579;-80
2024/01/01 09:48:31;;;;;;;;;2.00;2.00;;;;;11.30;69.75;100351.00;5080840;28;45504;-80
2024/01/01 09:50:56;;;;;;;;;2.67;1.67;;;;;11.17;70.52;100359.84;5081861;28;45463;-80
2024/01/01 09:53:24;;;;;;;;;1.00;1.00;;;;;11.22;70.52;100360.75;5080389;28;47211;-80
2024/01/01 09:55:54;;;;;;;;;3.00;1.67;;;;;11.27;70.78;100350.09;5095122;27;45995;-81
2024/01/01 09:58:21;;;;;;;;;1.00;1.00;;;;;11.29;70.57;100358.97;5077623;28;45476;-81
2024/01/01 10:00:50;;;;;;;;;1.00;1.00;;;;;11.36;70.71;100356.38;5080004;28;45428;-81
2024/01/01 10:03:15;;;;;;;;;2.00;2.00;;;;;11.43;70.50;100367.03;5096679;27;47661;-81
2024/01/01 10:05:41;;;;;;;;;2.67;0.00;;;;;11.59;69.91;100371.53;5080764;27;45344;-81
2024/01/01 10:08:16;;;;;;;;;2.67;2.67;;;;;11.59;70.35;100367.13;5082369;27;45352;-81
2024/01/01 10:10:42;;;;;;;;;3.00;2.00;;;;;11.46;70.24;100367.06;5100143;27;45483;-81
2024/01/01 10:13:13;;;;;;;;;3.00;1.33;;;;;11.49;70.63;100361.75;5082090;27;45464;-81
2024/01/01 10:15:40;;;;;;;;;6.67;3.00;;;;;11.56;70.60;100364.44;5080437;28;45586;-81
2024/01/01 10:18:24;;;;;;;;;3.00;2.33;;;;;11.81;70.25;100354.78;5079728;27;45428;-81
2024/01/01 10:20:51;;;;;;;;;2.00;1.33;;;;;11.79;69.91;100361.84;5080529;28;45487;-81
2024/01/01 10:23:19;;;;;;;;;6.33;6.33;;;;;11.87;69.98;100347.66;5081758;27;45722;-81
2024/01/01 10:25:45;;;;;;;;;2.67;2.67;;;;;11.78;69.92;100360.09;5079314;28;46196;-82
2024/01/01 10:28:15;;;;;;;;;3.00;1.00;;;;;11.91;69.45;100349.50;5081204;27;45865;-81
2024/01/01 10:30:46;;;;;;;;;2.67;2.67;;;;;11.98;69.34;100351.28;5081263;28;45347;-81
2024/01/01 10:33:13;;;;;;;;;3.00;2.00;;;;;12.00;69.94;100344.19;5080060;28;45500;-81
2024/01/01 10:35:40;;;;;;;;;5.00;1.33;;;;;12.03;69.59;100353.97;5097275;27;45472;-81
2024/01/01 10:38:06;;;;;;;;;2.00;2.00;;;;;12.01;69.26;100353.94;5081512;27;45395;-81
2024/01/01 10:40:31;;;;;;;;;2.00;2.00;;;;;12.01;69.55;100345.94;5081061;28;45349;-82
2024/01/01 10:42:58;;;;;;;;;5.00;2.00;;;;;12.12;69.52;100336.22;5078440;28;47019;-81
2024/01/01 10:45:23;;;;;;;;;6.00;3.00;;;;;12.11;69.38;100337.09;5079726;27;45341;-81
2024/01/01 10:47:51;;;;;;;;;3.00;3.00;;;;;12.15;69.03;100346.88;5096389;27;45289;-81
2024/01/01 10:50:28;;;;;;;;;2.33;1.33;;;;;12.31;69.32;100346.88;5080426;27;45488;-81
2024/01/01 10:53:31;;;;;;;;;4.00;3.00;;;;;12.48;69.38;100352.22;5081826;27;46270;-82
2024/01/01 10:56:25;;;;;;;;;2.67;1.00;;;;;12.50;69.09;100356.69;5094021;27;45554;-81
2024/01/01 10:59:22;;;;;;;;;4.00;3.00;;;;;12.60;68.85;100346.88;5081016;28;45741;-81
2024/01/01 11:01:52;;;;;;;;;1.67;1.33;;;;;12.49;69.13;100348.69;5082888;27;45447;-81
2024/01/01 11:04:22;;;;;;;;;2.00;2.00;;;;;12.56;69.16;100348.69;5064651;28;47301;-81
2024/01/01 11:06:47;;;;;;;;;1.00;1.00;;;;;12.51;68.79;100352.22;5079335;28;45451;-81
2024/01/01 11:09:19;;;;;;;;;2.00;2.00;;;;;12.60;68.83;100352.22;5078086;28;45562;-82
2024/01/01 11:11:55;;;;;;;;;6.00;2.67;;;;;12.66;69.19;100357.53;5094368;27;45543;-82
2024/01/01 11:14:25;;;;;;;;;2.00;2.00;;;;;12.73;68.85;100355.78;5078581;27;45582;-81
2024/01/01 11:16:52;;;;;;;;;1.67;1.00;;;;;12.76;68.93;100363.75;5079844;27;45362;-81
2024/01/01 11:19:37;;;;;;;;;3.00;3.00;;;;;12.85;69.46;100357.56;5095565;27;45385;-81
2024/01/01 11:22:30;;;;;;;;;2.33;2.33;;;;;12.94;68.81;100363.72;5079153;28;45633;-82
2024/01/01 11:24:59;;;;;;;;;3.67;2.00;;;;;13.07;68.61;100353.03;5074141;27;46196;-82
2024/01/01 11:27:32;;;;;;;;;3.00;2.67;;;;;13.13;68.43;100361.94;5077785;27;45649;-81
2024/01/01 11:30:05;;;;;;;;;7.67;2.67;;;;;13.10;67.99;100355.72;5076795;28;45563;-82
2024/01/01 11:32:31;;;;;;;;;3.00;2.00;;;;;12.93;68.77;100351.28;5095074;27;45454;-81
2024/01/01 11:35:15;;;;;;;;;2.33;2.33;;;;;13.23;68.42;100354.78;5081629;27;45633;-82